sensor_id;sensor_type;location;lat;lon;timestamp;temperature;humidity
65876;HTU21D;52657;51.128;5.938;2023-04-16T00:02:16;12.21;69.29
65876;HTU21D;52657;51.128;5.938;2023-04-16T00:04:41;12.18;69.16
65876;HTU21D;52657;51.128;5.938;2023-04-16T00:07:07;12.17;69.40
65876;HTU21D;52657;51.128;5.938;2023-04-16T00:09:32;12.19;69.20
65876;HTU21D;52657;51.128;5.938;2023-04-16T00:11:58;12.21;69.33
65876;HTU21D;52657;51.128;5.938;2023-04-16T00:14:24;12.23;69.15
65876;HTU21D;52657;51.128;5.938;2023-04-16T00:16:50;12.23;69.13
65876;HTU21D;52657;51.128;5.938;2023-04-16T00:19:16;12.20;69.19
65876;HTU21D;52657;51.128;5.938;2023-04-16T00:21:41;12.23;69.04
65876;HTU21D;52657;51.128;5.938;2023-04-16T00:24:07;12.18;69.09
65876;HTU21D;52657;51.128;5.938;2023-04-16T00:26:33;12.15;69.09
65876;HTU21D;52657;51.128;5.938;2023-04-16T00:28:58;12.11;69.26
65876;HTU21D;52657;51.128;5.938;2023-04-16T00:31:29;12.15;69.19
65876;HTU21D;52657;51.128;5.938;2023-04-16T00:33:56;12.10;69.11
65876;HTU21D;52657;51.128;5.938;2023-04-16T00:36:26;11.99;69.60
65876;HTU21D;52657;51.128;5.938;2023-04-16T00:38:52;11.97;69.90
65876;HTU21D;52657;51.128;5.938;2023-04-16T00:41:18;11.98;69.81
65876;HTU21D;52657;51.128;5.938;2023-04-16T00:43:44;11.94;69.82
65876;HTU21D;52657;51.128;5.938;2023-04-16T00:46:11;11.90;70.16
65876;HTU21D;52657;51.128;5.938;2023-04-16T00:48:38;11.89;69.97
65876;HTU21D;52657;51.128;5.938;2023-04-16T00:51:06;11.84;70.37
65876;HTU21D;52657;51.128;5.938;2023-04-16T00:53:32;11.79;70.48
65876;HTU21D;52657;51.128;5.938;2023-04-16T00:56:01;11.76;70.71
65876;HTU21D;52657;51.128;5.938;2023-04-16T00:58:28;11.75;70.75
65876;HTU21D;52657;51.128;5.938;2023-04-16T01:00:54;11.72;70.98
65876;HTU21D;52657;51.128;5.938;2023-04-16T01:03:21;11.73;71.04
65876;HTU21D;52657;51.128;5.938;2023-04-16T01:05:47;11.72;71.03
65876;HTU21D;52657;51.128;5.938;2023-04-16T01:08:20;11.74;71.06
65876;HTU21D;52657;51.128;5.938;2023-04-16T01:10:47;11.75;71.17
65876;HTU21D;52657;51.128;5.938;2023-04-16T01:13:15;11.81;71.09
65876;HTU21D;52657;51.128;5.938;2023-04-16T01:15:40;11.87;71.06
65876;HTU21D;52657;51.128;5.938;2023-04-16T01:18:14;11.94;70.76
65876;HTU21D;52657;51.128;5.938;2023-04-16T01:20:40;12.00;70.71
65876;HTU21D;52657;51.128;5.938;2023-04-16T01:23:06;12.03;70.58
65876;HTU21D;52657;51.128;5.938;2023-04-16T01:25:31;12.00;70.55
65876;HTU21D;52657;51.128;5.938;2023-04-16T01:27:57;11.97;70.68
65876;HTU21D;52657;51.128;5.938;2023-04-16T01:30:24;11.93;70.74
65876;HTU21D;52657;51.128;5.938;2023-04-16T01:33:13;11.76;71.02
65876;HTU21D;52657;51.128;5.938;2023-04-16T01:35:40;11.74;71.24
65876;HTU21D;52657;51.128;5.938;2023-04-16T01:38:07;11.66;71.57
65876;HTU21D;52657;51.128;5.938;2023-04-16T01:40:34;11.63;71.87
65876;HTU21D;52657;51.128;5.938;2023-04-16T01:42:59;11.63;72.00
65876;HTU21D;52657;51.128;5.938;2023-04-16T01:45:25;11.68;72.12
65876;HTU21D;52657;51.128;5.938;2023-04-16T01:47:51;11.76;71.90
65876;HTU21D;52657;51.128;5.938;2023-04-16T01:50:21;11.81;71.74
65876;HTU21D;52657;51.128;5.938;2023-04-16T01:52:47;11.79;71.60
65876;HTU21D;52657;51.128;5.938;2023-04-16T01:55:13;11.79;71.50
65876;HTU21D;52657;51.128;5.938;2023-04-16T01:57:39;11.76;71.58
65876;HTU21D;52657;51.128;5.938;2023-04-16T02:00:05;11.73;71.86
65876;HTU21D;52657;51.128;5.938;2023-04-16T02:02:44;11.71;71.84
65876;HTU21D;52657;51.128;5.938;2023-04-16T02:05:13;11.67;72.07
65876;HTU21D;52657;51.128;5.938;2023-04-16T02:07:38;11.71;72.09
65876;HTU21D;52657;51.128;5.938;2023-04-16T02:10:04;11.71;72.16
65876;HTU21D;52657;51.128;5.938;2023-04-16T02:12:31;11.73;72.09
65876;HTU21D;52657;51.128;5.938;2023-04-16T02:14:57;11.75;72.11
65876;HTU21D;52657;51.128;5.938;2023-04-16T02:17:25;11.74;71.97
65876;HTU21D;52657;51.128;5.938;2023-04-16T02:20:02;11.75;72.10
65876;HTU21D;52657;51.128;5.938;2023-04-16T02:22:31;11.81;72.12
65876;HTU21D;52657;51.128;5.938;2023-04-16T02:24:56;11.83;71.93
65876;HTU21D;52657;51.128;5.938;2023-04-16T02:27:22;11.85;71.87
65876;HTU21D;52657;51.128;5.938;2023-04-16T02:29:52;11.86;71.87
65876;HTU21D;52657;51.128;5.938;2023-04-16T02:32:18;11.89;71.80
65876;HTU21D;52657;51.128;5.938;2023-04-16T02:34:45;11.90;71.73
65876;HTU21D;52657;51.128;5.938;2023-04-16T02:37:12;11.92;71.59
65876;HTU21D;52657;51.128;5.938;2023-04-16T02:39:39;11.88;71.71
65876;HTU21D;52657;51.128;5.938;2023-04-16T02:42:05;11.84;71.81
65876;HTU21D;52657;51.128;5.938;2023-04-16T02:44:31;11.79;71.97
65876;HTU21D;52657;51.128;5.938;2023-04-16T02:46:57;11.76;72.33
65876;HTU21D;52657;51.128;5.938;2023-04-16T02:49:22;11.69;72.54
65876;HTU21D;52657;51.128;5.938;2023-04-16T02:51:48;11.72;72.74
65876;HTU21D;52657;51.128;5.938;2023-04-16T02:54:13;11.75;72.69
65876;HTU21D;52657;51.128;5.938;2023-04-16T02:56:39;11.78;72.54
65876;HTU21D;52657;51.128;5.938;2023-04-16T02:59:05;11.78;72.47
65876;HTU21D;52657;51.128;5.938;2023-04-16T03:01:30;11.78;72.56
65876;HTU21D;52657;51.128;5.938;2023-04-16T03:03:56;11.79;72.74
65876;HTU21D;52657;51.128;5.938;2023-04-16T03:06:22;11.86;72.69
65876;HTU21D;52657;51.128;5.938;2023-04-16T03:08:47;11.89;72.45
65876;HTU21D;52657;51.128;5.938;2023-04-16T03:11:14;11.91;72.43
65876;HTU21D;52657;51.128;5.938;2023-04-16T03:13:39;11.91;72.38
65876;HTU21D;52657;51.128;5.938;2023-04-16T03:16:05;11.88;72.52
65876;HTU21D;52657;51.128;5.938;2023-04-16T03:18:31;11.86;72.69
65876;HTU21D;52657;51.128;5.938;2023-04-16T03:20:56;11.89;72.71
65876;HTU21D;52657;51.128;5.938;2023-04-16T03:23:22;11.94;72.74
65876;HTU21D;52657;51.128;5.938;2023-04-16T03:25:49;11.91;72.61
65876;HTU21D;52657;51.128;5.938;2023-04-16T03:28:17;11.85;73.05
65876;HTU21D;52657;51.128;5.938;2023-04-16T03:30:47;11.85;72.98
65876;HTU21D;52657;51.128;5.938;2023-04-16T03:33:14;11.82;73.25
65876;HTU21D;52657;51.128;5.938;2023-04-16T03:35:39;11.83;73.41
65876;HTU21D;52657;51.128;5.938;2023-04-16T03:38:06;11.86;73.38
65876;HTU21D;52657;51.128;5.938;2023-04-16T03:40:32;11.87;73.35
65876;HTU21D;52657;51.128;5.938;2023-04-16T03:42:59;11.88;73.39
65876;HTU21D;52657;51.128;5.938;2023-04-16T03:45:26;11.89;73.15
65876;HTU21D;52657;51.128;5.938;2023-04-16T03:47:52;11.77;73.70
65876;HTU21D;52657;51.128;5.938;2023-04-16T03:50:20;11.75;73.93
65876;HTU21D;52657;51.128;5.938;2023-04-16T03:52:47;11.76;74.05
65876;HTU21D;52657;51.128;5.938;2023-04-16T03:55:14;11.82;74.04
65876;HTU21D;52657;51.128;5.938;2023-04-16T03:57:40;11.88;73.88
65876;HTU21D;52657;51.128;5.938;2023-04-16T04:00:10;11.79;74.05
65876;HTU21D;52657;51.128;5.938;2023-04-16T04:02:55;11.73;74.28
65876;HTU21D;52657;51.128;5.938;2023-04-16T04:05:22;11.68;74.58
65876;HTU21D;52657;51.128;5.938;2023-04-16T04:07:48;11.73;74.65
65876;HTU21D;52657;51.128;5.938;2023-04-16T04:10:14;11.76;74.65
65876;HTU21D;52657;51.128;5.938;2023-04-16T04:12:42;11.71;74.57
65876;HTU21D;52657;51.128;5.938;2023-04-16T04:15:08;11.63;74.92
65876;HTU21D;52657;51.128;5.938;2023-04-16T04:17:34;11.62;75.13
65876;HTU21D;52657;51.128;5.938;2023-04-16T04:20:00;11.66;75.34
65876;HTU21D;52657;51.128;5.938;2023-04-16T04:22:26;11.71;75.27
65876;HTU21D;52657;51.128;5.938;2023-04-16T04:24:52;11.77;75.07
65876;HTU21D;52657;51.128;5.938;2023-04-16T04:27:17;11.76;74.96
65876;HTU21D;52657;51.128;5.938;2023-04-16T04:29:43;11.77;75.02
65876;HTU21D;52657;51.128;5.938;2023-04-16T04:32:09;11.78;74.92
65876;HTU21D;52657;51.128;5.938;2023-04-16T04:34:35;11.83;74.92
65876;HTU21D;52657;51.128;5.938;2023-04-16T04:37:01;11.85;74.93
65876;HTU21D;52657;51.128;5.938;2023-04-16T04:39:27;11.86;74.91
65876;HTU21D;52657;51.128;5.938;2023-04-16T04:41:53;11.85;74.96
65876;HTU21D;52657;51.128;5.938;2023-04-16T04:44:19;11.87;75.01
65876;HTU21D;52657;51.128;5.938;2023-04-16T04:46:44;11.92;74.92
65876;HTU21D;52657;51.128;5.938;2023-04-16T04:49:10;11.98;74.84
65876;HTU21D;52657;51.128;5.938;2023-04-16T04:51:36;11.99;74.73
65876;HTU21D;52657;51.128;5.938;2023-04-16T04:54:02;11.88;74.80
65876;HTU21D;52657;51.128;5.938;2023-04-16T04:56:28;11.77;75.23
65876;HTU21D;52657;51.128;5.938;2023-04-16T04:58:54;11.73;75.52
65876;HTU21D;52657;51.128;5.938;2023-04-16T05:01:20;11.76;75.57
65876;HTU21D;52657;51.128;5.938;2023-04-16T05:03:45;11.77;75.67
65876;HTU21D;52657;51.128;5.938;2023-04-16T05:06:11;11.82;75.67
65876;HTU21D;52657;51.128;5.938;2023-04-16T05:08:37;11.71;75.89
65876;HTU21D;52657;51.128;5.938;2023-04-16T05:11:02;11.74;76.06
65876;HTU21D;52657;51.128;5.938;2023-04-16T05:13:28;11.73;75.89
65876;HTU21D;52657;51.128;5.938;2023-04-16T05:15:53;11.72;76.24
65876;HTU21D;52657;51.128;5.938;2023-04-16T05:18:19;11.76;76.23
65876;HTU21D;52657;51.128;5.938;2023-04-16T05:20:45;11.77;76.07
65876;HTU21D;52657;51.128;5.938;2023-04-16T05:23:10;11.75;75.95
65876;HTU21D;52657;51.128;5.938;2023-04-16T05:25:36;11.67;76.31
65876;HTU21D;52657;51.128;5.938;2023-04-16T05:28:02;11.68;76.47
65876;HTU21D;52657;51.128;5.938;2023-04-16T05:30:27;11.73;76.49
65876;HTU21D;52657;51.128;5.938;2023-04-16T05:32:53;11.82;76.03
65876;HTU21D;52657;51.128;5.938;2023-04-16T05:35:18;11.69;76.37
65876;HTU21D;52657;51.128;5.938;2023-04-16T05:37:44;11.69;76.45
65876;HTU21D;52657;51.128;5.938;2023-04-16T05:40:12;11.69;76.63
65876;HTU21D;52657;51.128;5.938;2023-04-16T05:42:38;11.70;76.31
65876;HTU21D;52657;51.128;5.938;2023-04-16T05:45:04;11.63;76.75
65876;HTU21D;52657;51.128;5.938;2023-04-16T05:47:29;11.70;76.67
65876;HTU21D;52657;51.128;5.938;2023-04-16T05:49:55;11.68;76.68
65876;HTU21D;52657;51.128;5.938;2023-04-16T05:52:21;11.72;76.82
65876;HTU21D;52657;51.128;5.938;2023-04-16T05:54:46;11.69;76.57
65876;HTU21D;52657;51.128;5.938;2023-04-16T05:57:13;11.64;76.73
65876;HTU21D;52657;51.128;5.938;2023-04-16T05:59:38;11.61;77.17
65876;HTU21D;52657;51.128;5.938;2023-04-16T06:02:04;11.67;77.20
65876;HTU21D;52657;51.128;5.938;2023-04-16T06:04:30;11.72;76.87
65876;HTU21D;52657;51.128;5.938;2023-04-16T06:06:56;11.70;76.98
65876;HTU21D;52657;51.128;5.938;2023-04-16T06:09:22;11.77;76.95
65876;HTU21D;52657;51.128;5.938;2023-04-16T06:11:48;11.83;76.85
65876;HTU21D;52657;51.128;5.938;2023-04-16T06:14:13;11.89;76.73
65876;HTU21D;52657;51.128;5.938;2023-04-16T06:16:39;11.87;76.31
65876;HTU21D;52657;51.128;5.938;2023-04-16T06:19:05;11.79;76.76
65876;HTU21D;52657;51.128;5.938;2023-04-16T06:21:30;11.82;76.69
65876;HTU21D;52657;51.128;5.938;2023-04-16T06:23:56;11.86;76.61
65876;HTU21D;52657;51.128;5.938;2023-04-16T06:26:22;11.92;76.71
65876;HTU21D;52657;51.128;5.938;2023-04-16T06:28:48;12.01;76.53
65876;HTU21D;52657;51.128;5.938;2023-04-16T06:31:14;11.99;76.34
65876;HTU21D;52657;51.128;5.938;2023-04-16T06:33:39;12.00;76.48
65876;HTU21D;52657;51.128;5.938;2023-04-16T06:36:05;11.99;76.16
65876;HTU21D;52657;51.128;5.938;2023-04-16T06:38:31;11.92;76.56
65876;HTU21D;52657;51.128;5.938;2023-04-16T06:40:57;11.87;76.56
65876;HTU21D;52657;51.128;5.938;2023-04-16T06:43:24;11.84;76.86
65876;HTU21D;52657;51.128;5.938;2023-04-16T06:45:49;11.85;76.98
65876;HTU21D;52657;51.128;5.938;2023-04-16T06:48:17;11.88;77.15
65876;HTU21D;52657;51.128;5.938;2023-04-16T06:50:42;11.90;76.96
65876;HTU21D;52657;51.128;5.938;2023-04-16T06:53:08;11.91;76.95
65876;HTU21D;52657;51.128;5.938;2023-04-16T06:55:34;11.90;76.94
65876;HTU21D;52657;51.128;5.938;2023-04-16T06:57:59;11.88;76.98
65876;HTU21D;52657;51.128;5.938;2023-04-16T07:00:25;11.92;77.10
65876;HTU21D;52657;51.128;5.938;2023-04-16T07:02:51;11.94;77.15
65876;HTU21D;52657;51.128;5.938;2023-04-16T07:05:17;11.94;76.98
65876;HTU21D;52657;51.128;5.938;2023-04-16T07:07:42;11.99;76.93
65876;HTU21D;52657;51.128;5.938;2023-04-16T07:10:08;12.01;76.97
65876;HTU21D;52657;51.128;5.938;2023-04-16T07:12:34;12.08;76.89
65876;HTU21D;52657;51.128;5.938;2023-04-16T07:15:00;12.05;76.66
65876;HTU21D;52657;51.128;5.938;2023-04-16T07:17:25;12.00;76.93
65876;HTU21D;52657;51.128;5.938;2023-04-16T07:19:51;12.02;76.93
65876;HTU21D;52657;51.128;5.938;2023-04-16T07:22:17;12.05;76.73
65876;HTU21D;52657;51.128;5.938;2023-04-16T07:24:43;12.05;76.82
65876;HTU21D;52657;51.128;5.938;2023-04-16T07:27:08;12.08;76.93
65876;HTU21D;52657;51.128;5.938;2023-04-16T07:29:34;12.12;76.85
65876;HTU21D;52657;51.128;5.938;2023-04-16T07:32:00;12.13;76.78
65876;HTU21D;52657;51.128;5.938;2023-04-16T07:34:25;12.15;76.83
65876;HTU21D;52657;51.128;5.938;2023-04-16T07:36:54;12.21;76.68
65876;HTU21D;52657;51.128;5.938;2023-04-16T07:39:19;12.25;76.36
65876;HTU21D;52657;51.128;5.938;2023-04-16T07:41:45;12.25;76.40
65876;HTU21D;52657;51.128;5.938;2023-04-16T07:44:11;12.13;76.46
65876;HTU21D;52657;51.128;5.938;2023-04-16T07:46:36;12.07;76.96
65876;HTU21D;52657;51.128;5.938;2023-04-16T07:49:02;12.13;77.06
65876;HTU21D;52657;51.128;5.938;2023-04-16T07:51:27;12.18;77.05
65876;HTU21D;52657;51.128;5.938;2023-04-16T07:53:53;12.25;76.74
65876;HTU21D;52657;51.128;5.938;2023-04-16T07:56:19;12.16;76.66
65876;HTU21D;52657;51.128;5.938;2023-04-16T07:58:44;12.14;77.11
65876;HTU21D;52657;51.128;5.938;2023-04-16T08:01:10;12.20;76.81
65876;HTU21D;52657;51.128;5.938;2023-04-16T08:03:36;12.21;76.64
65876;HTU21D;52657;51.128;5.938;2023-04-16T08:06:01;12.20;76.91
65876;HTU21D;52657;51.128;5.938;2023-04-16T08:08:27;12.27;76.85
65876;HTU21D;52657;51.128;5.938;2023-04-16T08:10:54;12.31;76.98
65876;HTU21D;52657;51.128;5.938;2023-04-16T08:13:23;12.35;76.92
65876;HTU21D;52657;51.128;5.938;2023-04-16T08:15:48;12.41;76.89
65876;HTU21D;52657;51.128;5.938;2023-04-16T08:18:14;12.44;76.79
65876;HTU21D;52657;51.128;5.938;2023-04-16T08:20:40;12.47;76.76
65876;HTU21D;52657;51.128;5.938;2023-04-16T08:23:06;12.48;76.55
65876;HTU21D;52657;51.128;5.938;2023-04-16T08:25:32;12.48;76.89
65876;HTU21D;52657;51.128;5.938;2023-04-16T08:27:57;12.51;76.87
65876;HTU21D;52657;51.128;5.938;2023-04-16T08:30:23;12.52;76.66
65876;HTU21D;52657;51.128;5.938;2023-04-16T08:32:50;12.57;76.82
65876;HTU21D;52657;51.128;5.938;2023-04-16T08:35:16;12.64;76.59
65876;HTU21D;52657;51.128;5.938;2023-04-16T08:37:41;12.70;76.39
65876;HTU21D;52657;51.128;5.938;2023-04-16T08:40:07;12.74;76.35
65876;HTU21D;52657;51.128;5.938;2023-04-16T08:42:52;12.79;76.14
65876;HTU21D;52657;51.128;5.938;2023-04-16T08:45:18;12.77;75.90
65876;HTU21D;52657;51.128;5.938;2023-04-16T08:47:50;12.75;75.96
65876;HTU21D;52657;51.128;5.938;2023-04-16T08:50:21;12.71;76.08
65876;HTU21D;52657;51.128;5.938;2023-04-16T08:53:03;12.71;76.44
65876;HTU21D;52657;51.128;5.938;2023-04-16T08:55:37;12.73;76.30
65876;HTU21D;52657;51.128;5.938;2023-04-16T08:58:14;12.82;76.38
65876;HTU21D;52657;51.128;5.938;2023-04-16T09:00:43;12.91;76.24
65876;HTU21D;52657;51.128;5.938;2023-04-16T09:03:11;12.95;75.94
65876;HTU21D;52657;51.128;5.938;2023-04-16T09:05:37;13.01;75.46
65876;HTU21D;52657;51.128;5.938;2023-04-16T09:08:04;12.95;75.46
65876;HTU21D;52657;51.128;5.938;2023-04-16T09:10:31;12.88;75.79
65876;HTU21D;52657;51.128;5.938;2023-04-16T09:12:57;12.95;75.91
65876;HTU21D;52657;51.128;5.938;2023-04-16T09:15:24;13.04;75.79
65876;HTU21D;52657;51.128;5.938;2023-04-16T09:17:53;13.11;75.54
65876;HTU21D;52657;51.128;5.938;2023-04-16T09:20:20;13.12;75.49
65876;HTU21D;52657;51.128;5.938;2023-04-16T09:22:46;13.07;75.30
65876;HTU21D;52657;51.128;5.938;2023-04-16T09:25:13;13.06;75.71
65876;HTU21D;52657;51.128;5.938;2023-04-16T09:27:39;13.12;75.91
65876;HTU21D;52657;51.128;5.938;2023-04-16T09:30:20;13.29;75.08
65876;HTU21D;52657;51.128;5.938;2023-04-16T09:32:47;13.22;75.18
65876;HTU21D;52657;51.128;5.938;2023-04-16T09:35:13;13.27;75.17
65876;HTU21D;52657;51.128;5.938;2023-04-16T09:37:40;13.34;74.86
65876;HTU21D;52657;51.128;5.938;2023-04-16T09:40:06;13.38;74.76
65876;HTU21D;52657;51.128;5.938;2023-04-16T09:42:35;13.36;74.22
65876;HTU21D;52657;51.128;5.938;2023-04-16T09:45:01;13.31;74.36
65876;HTU21D;52657;51.128;5.938;2023-04-16T09:47:40;13.33;74.27
65876;HTU21D;52657;51.128;5.938;2023-04-16T09:50:07;13.32;73.94
65876;HTU21D;52657;51.128;5.938;2023-04-16T09:52:35;13.31;73.77
65876;HTU21D;52657;51.128;5.938;2023-04-16T09:55:02;13.33;73.89
65876;HTU21D;52657;51.128;5.938;2023-04-16T09:57:28;13.37;74.02
65876;HTU21D;52657;51.128;5.938;2023-04-16T10:00:02;13.46;74.41
65876;HTU21D;52657;51.128;5.938;2023-04-16T10:02:30;13.61;74.35
65876;HTU21D;52657;51.128;5.938;2023-04-16T10:05:00;13.76;73.74
65876;HTU21D;52657;51.128;5.938;2023-04-16T10:07:33;13.80;73.00
65876;HTU21D;52657;51.128;5.938;2023-04-16T10:09:59;13.77;73.15
65876;HTU21D;52657;51.128;5.938;2023-04-16T10:12:25;13.77;72.92
65876;HTU21D;52657;51.128;5.938;2023-04-16T10:14:53;13.76;72.76
65876;HTU21D;52657;51.128;5.938;2023-04-16T10:17:20;13.73;72.64
65876;HTU21D;52657;51.128;5.938;2023-04-16T10:19:45;13.67;72.59
65876;HTU21D;52657;51.128;5.938;2023-04-16T10:22:12;13.69;72.67
65876;HTU21D;52657;51.128;5.938;2023-04-16T10:24:40;13.78;72.57
65876;HTU21D;52657;51.128;5.938;2023-04-16T10:27:05;13.89;72.45
65876;HTU21D;52657;51.128;5.938;2023-04-16T10:29:32;13.96;72.35
65876;HTU21D;52657;51.128;5.938;2023-04-16T10:31:59;14.05;71.49
65876;HTU21D;52657;51.128;5.938;2023-04-16T10:34:26;14.07;71.50
65876;HTU21D;52657;51.128;5.938;2023-04-16T10:36:54;14.14;71.55
65876;HTU21D;52657;51.128;5.938;2023-04-16T10:39:22;14.15;71.26
65876;HTU21D;52657;51.128;5.938;2023-04-16T10:41:49;14.21;70.97
65876;HTU21D;52657;51.128;5.938;2023-04-16T10:44:18;14.23;71.35
65876;HTU21D;52657;51.128;5.938;2023-04-16T10:46:47;14.32;70.71
65876;HTU21D;52657;51.128;5.938;2023-04-16T10:49:23;14.44;71.11
65876;HTU21D;52657;51.128;5.938;2023-04-16T10:51:54;14.73;70.36
65876;HTU21D;52657;51.128;5.938;2023-04-16T10:54:26;14.92;70.48
65876;HTU21D;52657;51.128;5.938;2023-04-16T10:56:55;15.15;69.89
65876;HTU21D;52657;51.128;5.938;2023-04-16T10:59:23;15.32;68.95
65876;HTU21D;52657;51.128;5.938;2023-04-16T11:01:58;15.51;68.36
65876;HTU21D;52657;51.128;5.938;2023-04-16T11:09:53;15.83;66.95
65876;HTU21D;52657;51.128;5.938;2023-04-16T11:12:21;16.00;66.89
65876;HTU21D;52657;51.128;5.938;2023-04-16T11:14:48;16.15;66.07
65876;HTU21D;52657;51.128;5.938;2023-04-16T11:17:15;16.20;64.81
65876;HTU21D;52657;51.128;5.938;2023-04-16T11:19:42;16.15;64.89
65876;HTU21D;52657;51.128;5.938;2023-04-16T11:22:11;16.28;64.57
65876;HTU21D;52657;51.128;5.938;2023-04-16T11:24:37;16.34;64.14
65876;HTU21D;52657;51.128;5.938;2023-04-16T11:27:06;16.43;64.11
65876;HTU21D;52657;51.128;5.938;2023-04-16T11:29:31;16.59;63.82
65876;HTU21D;52657;51.128;5.938;2023-04-16T11:31:57;16.73;62.80
65876;HTU21D;52657;51.128;5.938;2023-04-16T11:34:23;16.79;62.99
65876;HTU21D;52657;51.128;5.938;2023-04-16T11:36:51;16.88;61.96
65876;HTU21D;52657;51.128;5.938;2023-04-16T11:39:18;16.95;61.86
65876;HTU21D;52657;51.128;5.938;2023-04-16T11:41:49;17.10;60.92
65876;HTU21D;52657;51.128;5.938;2023-04-16T11:44:22;17.26;60.78
65876;HTU21D;52657;51.128;5.938;2023-04-16T11:46:49;17.45;59.12
65876;HTU21D;52657;51.128;5.938;2023-04-16T11:49:15;17.31;58.63
65876;HTU21D;52657;51.128;5.938;2023-04-16T11:51:46;17.21;58.64
65876;HTU21D;52657;51.128;5.938;2023-04-16T11:54:22;17.21;58.67
65876;HTU21D;52657;51.128;5.938;2023-04-16T11:56:50;17.11;58.75
65876;HTU21D;52657;51.128;5.938;2023-04-16T11:59:17;16.99;59.00
65876;HTU21D;52657;51.128;5.938;2023-04-16T12:01:51;16.96;59.41
65876;HTU21D;52657;51.128;5.938;2023-04-16T12:04:24;16.99;59.48
65876;HTU21D;52657;51.128;5.938;2023-04-16T12:07:07;17.06;59.56
65876;HTU21D;52657;51.128;5.938;2023-04-16T12:09:35;17.13;59.57
65876;HTU21D;52657;51.128;5.938;2023-04-16T12:12:01;17.17;59.57
65876;HTU21D;52657;51.128;5.938;2023-04-16T12:14:27;17.18;59.73
65876;HTU21D;52657;51.128;5.938;2023-04-16T12:16:53;17.07;59.60
65876;HTU21D;52657;51.128;5.938;2023-04-16T12:19:19;16.94;60.42
65876;HTU21D;52657;51.128;5.938;2023-04-16T12:21:49;16.93;60.55
65876;HTU21D;52657;51.128;5.938;2023-04-16T12:24:17;16.89;60.25
65876;HTU21D;52657;51.128;5.938;2023-04-16T12:26:53;16.79;59.96
65876;HTU21D;52657;51.128;5.938;2023-04-16T12:29:27;16.67;60.78
65876;HTU21D;52657;51.128;5.938;2023-04-16T12:31:53;16.74;60.96
65876;HTU21D;52657;51.128;5.938;2023-04-16T12:34:20;16.82;61.09
65876;HTU21D;52657;51.128;5.938;2023-04-16T12:36:47;16.95;60.76
65876;HTU21D;52657;51.128;5.938;2023-04-16T12:39:14;17.07;60.48
65876;HTU21D;52657;51.128;5.938;2023-04-16T12:41:42;17.10;60.16
65876;HTU21D;52657;51.128;5.938;2023-04-16T12:44:10;17.05;60.19
65876;HTU21D;52657;51.128;5.938;2023-04-16T12:46:41;17.00;60.37
65876;HTU21D;52657;51.128;5.938;2023-04-16T12:49:08;16.93;60.26
65876;HTU21D;52657;51.128;5.938;2023-04-16T12:51:35;16.89;60.29
65876;HTU21D;52657;51.128;5.938;2023-04-16T12:54:03;16.85;60.28
65876;HTU21D;52657;51.128;5.938;2023-04-16T12:56:30;16.76;60.51
65876;HTU21D;52657;51.128;5.938;2023-04-16T12:58:56;16.72;60.57
65876;HTU21D;52657;51.128;5.938;2023-04-16T13:01:22;16.64;60.69
65876;HTU21D;52657;51.128;5.938;2023-04-16T13:03:48;16.62;60.80
65876;HTU21D;52657;51.128;5.938;2023-04-16T13:06:15;16.50;60.75
65876;HTU21D;52657;51.128;5.938;2023-04-16T13:08:42;16.43;61.13
65876;HTU21D;52657;51.128;5.938;2023-04-16T13:11:09;16.30;61.21
65876;HTU21D;52657;51.128;5.938;2023-04-16T13:13:35;16.22;61.91
65876;HTU21D;52657;51.128;5.938;2023-04-16T13:16:01;16.24;61.86
65876;HTU21D;52657;51.128;5.938;2023-04-16T13:18:31;16.24;61.92
65876;HTU21D;52657;51.128;5.938;2023-04-16T13:20:57;16.21;61.83
65876;HTU21D;52657;51.128;5.938;2023-04-16T13:23:23;16.17;61.96
65876;HTU21D;52657;51.128;5.938;2023-04-16T13:25:49;16.19;61.99
65876;HTU21D;52657;51.128;5.938;2023-04-16T13:28:15;16.18;61.87
65876;HTU21D;52657;51.128;5.938;2023-04-16T13:30:41;16.20;61.68
65876;HTU21D;52657;51.128;5.938;2023-04-16T13:33:07;16.13;61.80
65876;HTU21D;52657;51.128;5.938;2023-04-16T13:35:33;16.19;62.05
65876;HTU21D;52657;51.128;5.938;2023-04-16T13:37:59;16.24;61.76
65876;HTU21D;52657;51.128;5.938;2023-04-16T13:40:25;16.28;61.79
65876;HTU21D;52657;51.128;5.938;2023-04-16T13:42:50;16.36;61.57
65876;HTU21D;52657;51.128;5.938;2023-04-16T13:45:17;16.45;61.83
65876;HTU21D;52657;51.128;5.938;2023-04-16T13:47:45;16.51;61.31
65876;HTU21D;52657;51.128;5.938;2023-04-16T13:50:11;16.49;61.53
65876;HTU21D;52657;51.128;5.938;2023-04-16T13:52:36;16.57;61.36
65876;HTU21D;52657;51.128;5.938;2023-04-16T13:55:02;16.66;61.05
65876;HTU21D;52657;51.128;5.938;2023-04-16T13:57:28;16.72;60.98
65876;HTU21D;52657;51.128;5.938;2023-04-16T13:59:54;16.75;60.84
65876;HTU21D;52657;51.128;5.938;2023-04-16T14:02:21;16.82;60.67
65876;HTU21D;52657;51.128;5.938;2023-04-16T14:04:48;16.80;60.56
65876;HTU21D;52657;51.128;5.938;2023-04-16T14:07:14;16.86;60.51
65876;HTU21D;52657;51.128;5.938;2023-04-16T14:09:40;16.89;60.45
65876;HTU21D;52657;51.128;5.938;2023-04-16T14:12:06;16.93;60.34
65876;HTU21D;52657;51.128;5.938;2023-04-16T14:14:32;16.99;60.44
65876;HTU21D;52657;51.128;5.938;2023-04-16T14:16:58;16.98;60.53
65876;HTU21D;52657;51.128;5.938;2023-04-16T14:19:24;17.00;60.67
65876;HTU21D;52657;51.128;5.938;2023-04-16T14:21:50;17.05;60.71
65876;HTU21D;52657;51.128;5.938;2023-04-16T14:24:15;17.15;60.67
65876;HTU21D;52657;51.128;5.938;2023-04-16T14:26:44;17.22;60.24
65876;HTU21D;52657;51.128;5.938;2023-04-16T14:29:10;17.23;60.08
65876;HTU21D;52657;51.128;5.938;2023-04-16T14:31:36;17.21;59.75
65876;HTU21D;52657;51.128;5.938;2023-04-16T14:34:02;17.15;59.99
65876;HTU21D;52657;51.128;5.938;2023-04-16T14:36:29;17.08;60.11
65876;HTU21D;52657;51.128;5.938;2023-04-16T14:38:55;17.15;59.95
65876;HTU21D;52657;51.128;5.938;2023-04-16T14:41:21;17.14;59.85
65876;HTU21D;52657;51.128;5.938;2023-04-16T14:43:46;17.22;59.70
65876;HTU21D;52657;51.128;5.938;2023-04-16T14:46:13;17.23;59.55
65876;HTU21D;52657;51.128;5.938;2023-04-16T14:48:42;17.14;59.30
65876;HTU21D;52657;51.128;5.938;2023-04-16T14:51:08;17.05;59.52
65876;HTU21D;52657;51.128;5.938;2023-04-16T14:53:36;17.05;59.53
65876;HTU21D;52657;51.128;5.938;2023-04-16T14:56:03;17.03;59.39
65876;HTU21D;52657;51.128;5.938;2023-04-16T14:58:28;16.99;59.44
65876;HTU21D;52657;51.128;5.938;2023-04-16T15:00:54;16.95;59.25
65876;HTU21D;52657;51.128;5.938;2023-04-16T15:03:20;16.85;59.72
65876;HTU21D;52657;51.128;5.938;2023-04-16T15:05:46;16.85;59.89
65876;HTU21D;52657;51.128;5.938;2023-04-16T15:08:20;16.93;59.83
65876;HTU21D;52657;51.128;5.938;2023-04-16T15:10:45;16.99;59.70
65876;HTU21D;52657;51.128;5.938;2023-04-16T15:13:12;17.05;59.32
65876;HTU21D;52657;51.128;5.938;2023-04-16T15:15:38;17.04;59.44
65876;HTU21D;52657;51.128;5.938;2023-04-16T15:18:04;17.15;59.29
65876;HTU21D;52657;51.128;5.938;2023-04-16T15:20:30;17.22;58.80